createdAt,value
2018-12-06T00:04:17.490Z,4.17
2018-12-06T00:09:20.699Z,4.90
2018-12-06T00:14:23.914Z,4.50
2018-12-06T00:19:28.158Z,5.97
2018-12-06T00:24:31.400Z,5.70
2018-12-06T00:29:34.630Z,5.47
2018-12-06T00:34:38.866Z,6.80
2018-12-06T00:39:42.098Z,7.63
2018-12-06T00:44:45.319Z,6.70
2018-12-06T00:49:48.555Z,7.20
2018-12-06T00:54:51.947Z,6.80
2018-12-06T00:59:56.170Z,7.70
2018-12-06T01:05:00.455Z,7.73
2018-12-06T01:10:05.406Z,7.20
2018-12-06T01:15:08.782Z,8.37
2018-12-06T01:20:12.100Z,7.13
2018-12-06T01:25:15.495Z,8.57
2018-12-06T01:30:18.886Z,8.30
2018-12-06T01:35:22.103Z,9.20
2018-12-06T01:40:25.314Z,8.03
2018-12-06T01:45:28.643Z,7.43
2018-12-06T01:50:31.862Z,8.33
2018-12-06T01:55:35.076Z,8.43
2018-12-06T02:00:38.302Z,9.40
2018-12-06T02:05:42.250Z,8.47
2018-12-06T02:10:45.487Z,9.07
2018-12-06T02:15:48.667Z,9.10
2018-12-06T02:20:52.007Z,8.70
2018-12-06T02:25:55.214Z,9.60
2018-12-06T02:30:58.665Z,8.33
2018-12-06T02:36:01.899Z,8.67
2018-12-06T02:41:05.354Z,6.63
2018-12-06T02:46:08.622Z,8.80
2018-12-06T02:51:11.892Z,7.40
2018-12-06T02:56:15.063Z,7.03
2018-12-06T03:01:18.234Z,8.37
2018-12-06T03:06:21.411Z,6.50
2018-12-06T03:11:24.659Z,7.70
2018-12-06T03:16:27.942Z,7.30
2018-12-06T03:21:31.136Z,6.90
2018-12-06T03:26:34.424Z,7.30
2018-12-06T03:31:37.813Z,7.13
2018-12-06T03:36:40.978Z,6.93
2018-12-06T03:41:44.201Z,7.30
2018-12-06T03:46:49.256Z,6.50
2018-12-06T03:51:52.422Z,7.37
2018-12-06T03:56:55.603Z,7.00
2018-12-06T04:01:58.775Z,6.90
2018-12-06T04:07:02.074Z,7.60
2018-12-06T04:12:05.618Z,6.93
2018-12-06T04:17:08.811Z,7.57
2018-12-06T04:22:11.983Z,6.80
2018-12-06T04:27:15.238Z,7.10
2018-12-06T04:32:18.463Z,6.60
2018-12-06T04:37:21.677Z,6.20
2018-12-06T04:42:25.075Z,6.90
2018-12-06T04:47:28.289Z,6.50
2018-12-06T04:52:31.494Z,6.83
2018-12-06T04:57:34.711Z,7.77
2018-12-06T05:02:38.002Z,7.50
2018-12-06T05:07:41.270Z,7.43
2018-12-06T05:12:44.823Z,6.93
2018-12-06T05:17:48.054Z,7.97
2018-12-06T05:22:51.542Z,8.30
2018-12-06T05:27:54.801Z,9.17
2018-12-06T05:32:58.051Z,9.17
2018-12-06T05:38:02.105Z,8.60
2018-12-06T05:43:05.354Z,8.00
2018-12-06T05:48:08.602Z,7.20
2018-12-06T05:53:11.866Z,6.83
2018-12-06T05:58:15.103Z,7.90
2018-12-06T06:03:18.298Z,6.60
2018-12-06T06:08:21.505Z,7.33
2018-12-06T06:13:24.702Z,7.33
2018-12-06T06:18:27.922Z,6.80
2018-12-06T06:23:31.133Z,6.40
2018-12-06T06:28:34.336Z,6.07
2018-12-06T06:33:37.678Z,6.60
2018-12-06T06:38:41.084Z,6.47
2018-12-06T06:43:44.436Z,7.80
2018-12-06T06:48:47.978Z,6.80
2018-12-06T06:53:51.218Z,6.30
2018-12-06T06:58:54.502Z,6.17
2018-12-06T07:03:58.698Z,5.60
2018-12-06T07:09:02.259Z,6.90
2018-12-06T07:14:05.526Z,6.03
2018-12-06T07:19:09.530Z,6.60
2018-12-06T07:24:12.785Z,5.77
2018-12-06T07:29:16.022Z,6.87
2018-12-06T07:34:19.366Z,6.80
2018-12-06T07:39:22.617Z,5.70
2018-12-06T07:44:25.871Z,7.00
2018-12-06T07:49:29.147Z,6.30
2018-12-06T07:54:32.363Z,5.80
2018-12-06T07:59:35.750Z,6.30
2018-12-06T08:04:38.947Z,5.07
2018-12-06T08:09:42.166Z,6.87
2018-12-06T08:14:45.466Z,4.80
2018-12-06T08:19:49.002Z,5.33
2018-12-06T08:24:52.218Z,4.63
2018-12-06T08:29:55.441Z,5.00
2018-12-06T08:34:59.466Z,4.50
2018-12-06T08:40:02.766Z,4.57
2018-12-06T08:45:06.174Z,4.67
2018-12-06T08:50:09.763Z,4.40
2018-12-06T08:55:13.037Z,4.93
2018-12-06T09:00:16.256Z,5.20
2018-12-06T09:05:19.886Z,4.20
2018-12-06T09:10:23.151Z,4.67
2018-12-06T09:15:26.818Z,4.47
2018-12-06T09:20:31.090Z,4.20
2018-12-06T09:25:35.273Z,3.93
2018-12-06T09:30:38.500Z,3.83
2018-12-06T09:35:41.850Z,3.30
2018-12-06T09:40:46.590Z,3.30
2018-12-06T09:45:49.951Z,3.27
2018-12-06T09:50:53.430Z,3.80
2018-12-06T09:55:56.779Z,3.10
2018-12-06T10:01:00.270Z,3.70
2018-12-06T10:06:03.736Z,3.00
2018-12-06T10:11:10.253Z,3.03
2018-12-06T10:16:13.656Z,3.63
2018-12-06T10:21:16.946Z,3.03
2018-12-06T10:26:22.163Z,3.73
2018-12-06T10:31:26.189Z,4.07
2018-12-06T10:36:29.455Z,4.40
2018-12-06T10:41:32.870Z,3.80
2018-12-06T10:46:36.177Z,4.53
2018-12-06T10:51:42.294Z,4.60
2018-12-06T10:56:45.644Z,4.63
2018-12-06T11:02:55.954Z,4.30
2018-12-06T11:07:59.275Z,4.97
2018-12-06T11:13:03.194Z,5.33
2018-12-06T11:18:06.402Z,5.63
2018-12-06T11:23:09.666Z,5.50
2018-12-06T11:28:13.018Z,5.30
2018-12-06T11:33:16.319Z,5.83
2018-12-06T11:38:19.522Z,5.50
2018-12-06T11:43:22.742Z,6.50
2018-12-06T11:48:27.009Z,5.40
2018-12-06T11:53:30.799Z,5.97
2018-12-06T11:58:34.947Z,6.00
2018-12-06T12:03:40.457Z,6.03
2018-12-06T12:08:45.534Z,5.83
2018-12-06T12:13:48.761Z,5.63
2018-12-06T12:18:51.989Z,7.33
2018-12-06T12:23:56.241Z,7.57
2018-12-06T12:28:59.472Z,8.63
2018-12-06T12:34:02.757Z,7.83
2018-12-06T12:39:08.690Z,7.87
2018-12-06T12:44:12.114Z,11.83
2018-12-06T12:49:15.358Z,11.83
2018-12-06T12:54:18.583Z,13.93
2018-12-06T12:59:21.794Z,14.07
2018-12-06T13:04:25.087Z,13.90
2018-12-06T13:09:28.350Z,13.37
2018-12-06T13:14:31.778Z,13.93
2018-12-06T13:19:35.253Z,14.33
2018-12-06T13:24:42.551Z,13.33
2018-12-06T13:29:45.927Z,13.33
2018-12-06T13:34:49.279Z,13.37
2018-12-06T13:39:52.613Z,13.67
2018-12-06T13:44:55.951Z,13.07
2018-12-06T13:49:59.215Z,11.10
2018-12-06T13:55:02.725Z,12.57
2018-12-06T14:00:06.178Z,12.13
2018-12-06T14:05:09.615Z,11.40
2018-12-06T14:10:12.947Z,10.37
2018-12-06T14:15:16.302Z,9.90
2018-12-06T14:20:19.556Z,9.40
2018-12-06T14:25:22.817Z,9.30
2018-12-06T14:30:26.078Z,9.07
2018-12-06T14:35:29.318Z,8.00
2018-12-06T14:40:32.582Z,8.23
2018-12-06T14:45:36.239Z,7.33
2018-12-06T14:50:39.506Z,7.30
2018-12-06T14:55:43.247Z,6.90
2018-12-06T15:00:46.762Z,7.10
2018-12-06T15:05:49.959Z,6.73
2018-12-06T15:10:53.397Z,5.90
2018-12-06T15:15:56.654Z,5.77
2018-12-06T15:20:59.859Z,6.67
2018-12-06T15:26:03.402Z,6.20
2018-12-06T15:31:06.510Z,5.43
2018-12-06T15:36:09.747Z,4.87
2018-12-06T15:41:13.111Z,6.63
2018-12-06T15:46:17.398Z,5.80
2018-12-06T15:51:20.646Z,5.70
2018-12-06T15:56:23.966Z,5.70
2018-12-06T16:01:27.216Z,5.90
2018-12-06T16:06:30.455Z,6.50
2018-12-06T16:11:33.738Z,6.37
2018-12-06T16:16:37.159Z,5.60
2018-12-06T16:21:40.345Z,6.90
2018-12-06T16:26:43.549Z,7.50
2018-12-06T16:31:46.875Z,7.10
2018-12-06T16:36:50.077Z,6.97
2018-12-06T16:41:53.283Z,7.50
2018-12-06T16:46:56.510Z,6.90
2018-12-06T16:52:00.136Z,7.10
2018-12-06T16:57:03.550Z,6.87
2018-12-06T17:02:07.135Z,7.90
2018-12-06T17:07:10.443Z,6.33
2018-12-06T17:12:13.754Z,7.10
2018-12-06T17:17:17.015Z,6.30
2018-12-06T17:22:21.308Z,6.60
2018-12-06T17:27:24.590Z,5.43
2018-12-06T17:32:28.142Z,6.20
2018-12-06T17:37:31.490Z,5.53
2018-12-06T17:42:34.854Z,6.57
2018-12-06T17:47:38.102Z,5.90
2018-12-06T17:52:41.410Z,7.27
2018-12-06T17:57:44.662Z,5.57
2018-12-06T18:02:48.104Z,5.10
2018-12-06T18:07:51.546Z,5.67
2018-12-06T18:12:54.770Z,5.97
2018-12-06T18:17:58.005Z,5.23
2018-12-06T18:23:01.230Z,5.30
2018-12-06T18:28:04.751Z,5.87
2018-12-06T18:33:07.970Z,5.10
2018-12-06T18:38:11.346Z,6.20
2018-12-06T18:43:14.634Z,5.20
2018-12-06T18:48:17.844Z,6.17
2018-12-06T18:53:21.070Z,6.87
2018-12-06T18:58:24.286Z,7.10
2018-12-06T19:03:27.570Z,6.30
2018-12-06T19:08:30.858Z,6.77
2018-12-06T19:13:34.167Z,6.90
2018-12-06T19:18:37.382Z,7.30
2018-12-06T19:23:40.851Z,6.73
2018-12-06T19:28:44.293Z,8.70
2018-12-06T19:33:47.734Z,8.00
2018-12-06T19:38:50.942Z,7.37
2018-12-06T19:43:54.147Z,5.77
2018-12-06T19:48:57.466Z,6.63
2018-12-06T19:54:00.674Z,7.10
2018-12-06T19:59:04.147Z,6.63
2018-12-06T20:04:07.585Z,6.03
2018-12-06T20:09:10.950Z,7.33
2018-12-06T20:14:14.200Z,7.47
2018-12-06T20:19:17.486Z,7.33
2018-12-06T20:24:20.726Z,7.03
2018-12-06T20:29:23.965Z,7.67
2018-12-06T20:34:29.878Z,7.60
2018-12-06T20:39:33.118Z,6.63
2018-12-06T20:44:36.434Z,8.17
2018-12-06T20:49:39.654Z,6.30
2018-12-06T20:54:42.857Z,7.07
2018-12-06T20:59:47.093Z,5.80
2018-12-06T21:04:50.470Z,6.03
2018-12-06T21:09:53.683Z,6.33
2018-12-06T21:14:56.937Z,6.13
2018-12-06T21:20:00.191Z,6.97
2018-12-06T21:25:03.690Z,7.20
2018-12-06T21:30:07.422Z,6.70
2018-12-06T21:35:10.861Z,7.43
2018-12-06T21:40:14.230Z,8.13
2018-12-06T21:45:17.484Z,7.63
2018-12-06T21:50:20.726Z,8.80
2018-12-06T21:55:23.966Z,8.90
2018-12-06T22:00:27.231Z,9.00
2018-12-06T22:05:31.326Z,8.77
2018-12-06T22:10:34.887Z,9.70
2018-12-06T22:15:38.145Z,10.30
2018-12-06T22:20:41.390Z,9.20
2018-12-06T22:25:44.642Z,10.13
2018-12-06T22:30:48.240Z,10.73
2018-12-06T22:35:51.698Z,9.80
2018-12-06T22:40:54.938Z,11.20
2018-12-06T22:46:00.252Z,12.03
2018-12-06T22:51:04.594Z,10.87
2018-12-06T22:56:07.958Z,10.20
2018-12-06T23:01:12.616Z,9.73
2018-12-06T23:06:15.954Z,10.57
2018-12-06T23:11:19.206Z,9.10
2018-12-06T23:16:22.574Z,9.90
2018-12-06T23:21:25.871Z,9.23
2018-12-06T23:26:29.497Z,9.40
2018-12-06T23:31:33.726Z,9.40
2018-12-06T23:36:36.951Z,7.77
2018-12-06T23:41:40.178Z,8.37
2018-12-06T23:46:43.466Z,7.40
2018-12-06T23:51:47.006Z,7.43
2018-12-06T23:56:50.311Z,6.90
